Cinderella 1 — SBLK — position and weather

sailwx.info

Track history (hours):
 
Tides and Currents Weather Stations Pressure Air Temp Water Temp Dewpoint Dewpoint Depression Visibility Wind Speed Wind Dir Waves Ship Positions

Cinderella 1

Last reported at 2016-Jul-01 08:22 UTC. Time now 2016-Jul-01 11:47 UTC.
Position N 59°20' E 018°11'.

Length 42 m; draft 1.1 m.

Type: Passenger vessel. MMSI: 265524530.

Date/timePositionNaut miles runAvg speedWind from/ knotsBaromVisibWave heightAir tempDewpointWater temp
2016-Jul-01 08:22N 59°20' E 018°11'3 1.8
2016-Jul-01 06:29N 59°20' E 018°05'0 0.0
2016-Jul-01 05:33N 59°20' E 018°05'0 0.0
2016-Jul-01 04:33N 59°20' E 018°05'0 0.0
2016-Jul-01 03:33N 59°20' E 018°05'0 0.0
2016-Jul-01 02:33N 59°20' E 018°05'0 0.0
2016-Jul-01 01:33N 59°20' E 018°05'0 0.0
2016-Jul-01 00:33N 59°20' E 018°05'0 0.0
2016-Jun-30 23:33N 59°20' E 018°05'0 0.0
2016-Jun-30 22:33N 59°20' E 018°05'0 0.0
2016-Jun-30 21:32N 59°20' E 018°05'0 0.0
2016-Jun-30 20:33N 59°20' E 018°05'0 0.1
2016-Jun-30 15:33N 59°20' E 018°05'0 0.4
2016-Jun-30 14:33N 59°20' E 018°05'1 0.2
2016-Jun-30 08:08N 59°19' E 018°06'1 0.7
2016-Jun-30 06:25N 59°20' E 018°05'0 0.0
2016-Jun-30 05:26N 59°20' E 018°05'0 0.0
2016-Jun-30 04:29N 59°20' E 018°05'0 0.0
2016-Jun-30 03:33N 59°20' E 018°05'0 0.0
2016-Jun-30 02:33N 59°20' E 018°05'0 0.0
2016-Jun-30 01:33N 59°20' E 018°05'0 0.0
2016-Jun-30 00:32N 59°20' E 018°05'0 0.0
2016-Jun-29 23:33N 59°20' E 018°05'0 0.0
2016-Jun-29 22:33N 59°20' E 018°05'0 0.0
2016-Jun-29 21:33N 59°20' E 018°05'0 0.0
2016-Jun-29 20:33N 59°20' E 018°05'0 0.1
2016-Jun-29 15:33N 59°20' E 018°05'0 0.4
2016-Jun-29 14:27N 59°20' E 018°05'1 0.2
2016-Jun-29 08:10N 59°19' E 018°07'1 1.7
2016-Jun-29 07:26N 59°20' E 018°05'0 0.0
2016-Jun-29 06:33N 59°20' E 018°05'0 0.0
2016-Jun-29 05:33N 59°20' E 018°05'0 0.0
2016-Jun-29 04:33N 59°20' E 018°05'0 0.0
2016-Jun-29 03:31N 59°20' E 018°05'0 0.0
2016-Jun-29 02:33N 59°20' E 018°05'0 0.0
2016-Jun-29 01:33N 59°20' E 018°05'0 0.0
2016-Jun-29 00:33N 59°20' E 018°05'0 0.0
2016-Jun-28 23:33N 59°20' E 018°05'0 0.0
2016-Jun-28 22:33N 59°20' E 018°05'0 0.0
2016-Jun-28 21:33N 59°20' E 018°05'0 0.0
2016-Jun-28 20:33N 59°20' E 018°05'0 0.1
2016-Jun-28 15:34N 59°20' E 018°05'0 0.4
2016-Jun-28 14:31N 59°20' E 018°05'1 0.2
2016-Jun-28 08:09N 59°19' E 018°06'1 1.7
2016-Jun-28 07:29N 59°20' E 018°05'0 0.0
2016-Jun-27 20:33N 59°20' E 018°05'0 0.1
2016-Jun-27 15:33N 59°20' E 018°05'0 0.5
2016-Jun-27 14:31N 59°20' E 018°05'1 0.2
2016-Jun-27 08:09N 59°19' E 018°07'1 1.2
2016-Jun-27 07:04N 59°20' E 018°05'0 0.0
2016-Jun-27 06:08N 59°20' E 018°05'0 0.0
2016-Jun-27 05:33N 59°20' E 018°05'0 0.0
2016-Jun-27 04:31N 59°20' E 018°05'0 0.0
2016-Jun-27 03:33N 59°20' E 018°05'0 0.0
2016-Jun-27 02:34N 59°20' E 018°05'0 0.0
2016-Jun-27 01:33N 59°20' E 018°05'0 0.0
2016-Jun-27 00:33N 59°20' E 018°05'0 0.0
2016-Jun-26 23:33N 59°20' E 018°05'0 0.0
2016-Jun-26 22:33N 59°20' E 018°05'0 0.0
2016-Jun-26 21:33N 59°20' E 018°05'0 0.0
2016-Jun-26 20:33N 59°20' E 018°05'3 2.6
2016-Jun-26 19:26N 59°19' E 018°10'3 0.6
2016-Jun-26 14:33N 59°20' E 018°05'1 0.2
2016-Jun-26 08:06N 59°19' E 018°06'1 1.8
2016-Jun-26 07:34N 59°20' E 018°05'0 0.0
2016-Jun-26 06:33N 59°20' E 018°05'0 0.0
2016-Jun-26 05:34N 59°20' E 018°05'0 0.0
2016-Jun-26 04:33N 59°20' E 018°05'0 0.0
2016-Jun-26 03:33N 59°20' E 018°05'0 0.0
2016-Jun-26 02:33N 59°20' E 018°05'0 0.0
2016-Jun-26 01:34N 59°20' E 018°05'0 0.0
2016-Jun-26 00:34N 59°20' E 018°05'0 0.0
2016-Jun-25 23:34N 59°20' E 018°05'0 0.0
2016-Jun-25 22:33N 59°20' E 018°05'0 0.0
2016-Jun-25 21:34N 59°20' E 018°05'0 0.0
2016-Jun-25 20:33N 59°20' E 018°05'3 2.7
2016-Jun-25 19:29N 59°19' E 018°10'1 0.1
2016-Jun-25 15:06N 59°20' E 018°11'3 6.0
2016-Jun-25 14:33N 59°20' E 018°05'3 0.5
2016-Jun-25 08:23N 59°20' E 018°11'3 4.1
2016-Jun-25 07:34N 59°20' E 018°05'0 0.0
2016-Jun-25 06:33N 59°20' E 018°05'0 0.0
2016-Jun-25 05:34N 59°20' E 018°05'0 0.0
2016-Jun-25 04:34N 59°20' E 018°05'0 0.0
2016-Jun-25 03:33N 59°20' E 018°05'0 0.0
2016-Jun-25 02:33N 59°20' E 018°05'0 0.0
2016-Jun-25 01:33N 59°20' E 018°05'0 0.0
2016-Jun-25 00:33N 59°20' E 018°05'0 0.0
2016-Jun-24 23:33N 59°20' E 018°05'0 0.0
2016-Jun-24 22:33N 59°20' E 018°05'0 0.0
2016-Jun-24 21:33N 59°20' E 018°05'0 0.0
2016-Jun-24 20:34N 59°20' E 018°05'3 3.2
2016-Jun-24 19:33N 59°20' E 018°11'0 0.0
2016-Jun-24 15:06N 59°20' E 018°11'3 6.1
2016-Jun-24 14:33N 59°20' E 018°05'1 0.2
2016-Jun-24 08:07N 59°19' E 018°06'1 1.7
2016-Jun-24 07:33N 59°20' E 018°05'0 0.0
2016-Jun-24 04:33N 59°20' E 018°05'0 0.0
2016-Jun-24 03:33N 59°20' E 018°05'0 0.0
2016-Jun-24 02:33N 59°20' E 018°05'0 0.0
2016-Jun-24 01:33N 59°20' E 018°05'0 0.0
2016-Jun-24 00:33N 59°20' E 018°05'0 0.0
2016-Jun-23 23:34N 59°20' E 018°05'0 0.0
2016-Jun-23 22:33N 59°20' E 018°05'0 0.0
2016-Jun-23 21:33N 59°20' E 018°05'3 3.0
2016-Jun-23 20:27N 59°20' E 018°11'3 0.6
2016-Jun-23 15:34N 59°20' E 018°05'0 0.4
2016-Jun-23 14:26N 59°20' E 018°05'3 0.6
2016-Jun-23 08:22N 59°20' E 018°11'3 3.6
2016-Jun-23 07:24N 59°20' E 018°05'0 0.0
2016-Jun-23 05:31N 59°20' E 018°05'0 0.0
2016-Jun-23 04:33N 59°20' E 018°05'0 0.0
2016-Jun-23 03:33N 59°20' E 018°05'0 0.0
2016-Jun-23 02:33N 59°20' E 018°05'0 0.0
2016-Jun-23 01:33N 59°20' E 018°05'0 0.0
2016-Jun-23 00:33N 59°20' E 018°05'0 0.0
2016-Jun-22 23:33N 59°20' E 018°05'0 0.0
2016-Jun-22 21:31N 59°20' E 018°05'3 2.6
2016-Jun-22 20:25N 59°19' E 018°10'3 0.6
2016-Jun-22 15:33N 59°20' E 018°05'0 0.0
2016-Jun-22 14:20N 59°20' E 018°05'3 0.5
2016-Jun-22 08:22N 59°20' E 018°11'3 2.9
2016-Jun-22 07:16N 59°20' E 018°05'0 0.0
2016-Jun-22 06:33N 59°20' E 018°05'0 0.0
2016-Jun-22 05:33N 59°20' E 018°05'0 0.0
2016-Jun-22 04:33N 59°20' E 018°05'0 0.0
2016-Jun-22 03:33N 59°20' E 018°05'0 0.0
2016-Jun-22 02:33N 59°20' E 018°05'0 0.0
2016-Jun-22 01:33N 59°20' E 018°05'0 0.0
2016-Jun-22 00:33N 59°20' E 018°05'0 0.0
2016-Jun-21 23:33N 59°20' E 018°05'0 0.0
2016-Jun-21 22:33N 59°20' E 018°05'0 0.0
2016-Jun-21 21:33N 59°20' E 018°05'0 0.3
2016-Jun-21 20:33N 59°20' E 018°05'0 0.0
2016-Jun-21 15:33N 59°20' E 018°05'0 0.4
2016-Jun-21 14:30N 59°20' E 018°05'  
Track history (hours):
 
Tides and Currents Weather Stations Pressure Air Temp Water Temp Dewpoint Dewpoint Depression Visibility Wind Speed Wind Dir Waves Ship Positions

Cinderella 1

Last reported at 2016-Jul-01 08:22 UTC. Time now 2016-Jul-01 11:47 UTC.
Position N 59°20' E 018°11'.

Length 42 m; draft 1.1 m.

Type: Passenger vessel. MMSI: 265524530.

Date/timePositionNaut miles runAvg speedWind from/ knotsBaromVisibWave heightAir tempDewpointWater temp
2016-Jul-01 08:22N 59°20' E 018°11'3 1.8
2016-Jul-01 06:29N 59°20' E 018°05'0 0.0
2016-Jul-01 05:33N 59°20' E 018°05'0 0.0
2016-Jul-01 04:33N 59°20' E 018°05'0 0.0
2016-Jul-01 03:33N 59°20' E 018°05'0 0.0
2016-Jul-01 02:33N 59°20' E 018°05'0 0.0
2016-Jul-01 01:33N 59°20' E 018°05'0 0.0
2016-Jul-01 00:33N 59°20' E 018°05'0 0.0
2016-Jun-30 23:33N 59°20' E 018°05'0 0.0
2016-Jun-30 22:33N 59°20' E 018°05'0 0.0
2016-Jun-30 21:32N 59°20' E 018°05'0 0.0
2016-Jun-30 20:33N 59°20' E 018°05'0 0.1
2016-Jun-30 15:33N 59°20' E 018°05'0 0.4
2016-Jun-30 14:33N 59°20' E 018°05'1 0.2
2016-Jun-30 08:08N 59°19' E 018°06'1 0.7
2016-Jun-30 06:25N 59°20' E 018°05'0 0.0
2016-Jun-30 05:26N 59°20' E 018°05'0 0.0
2016-Jun-30 04:29N 59°20' E 018°05'0 0.0
2016-Jun-30 03:33N 59°20' E 018°05'0 0.0
2016-Jun-30 02:33N 59°20' E 018°05'0 0.0
2016-Jun-30 01:33N 59°20' E 018°05'0 0.0
2016-Jun-30 00:32N 59°20' E 018°05'0 0.0
2016-Jun-29 23:33N 59°20' E 018°05'0 0.0
2016-Jun-29 22:33N 59°20' E 018°05'0 0.0
2016-Jun-29 21:33N 59°20' E 018°05'0 0.0
2016-Jun-29 20:33N 59°20' E 018°05'0 0.1
2016-Jun-29 15:33N 59°20' E 018°05'0 0.4
2016-Jun-29 14:27N 59°20' E 018°05'1 0.2
2016-Jun-29 08:10N 59°19' E 018°07'1 1.7
2016-Jun-29 07:26N 59°20' E 018°05'0 0.0
2016-Jun-29 06:33N 59°20' E 018°05'0 0.0
2016-Jun-29 05:33N 59°20' E 018°05'0 0.0
2016-Jun-29 04:33N 59°20' E 018°05'0 0.0
2016-Jun-29 03:31N 59°20' E 018°05'0 0.0
2016-Jun-29 02:33N 59°20' E 018°05'0 0.0
2016-Jun-29 01:33N 59°20' E 018°05'0 0.0
2016-Jun-29 00:33N 59°20' E 018°05'0 0.0
2016-Jun-28 23:33N 59°20' E 018°05'0 0.0
2016-Jun-28 22:33N 59°20' E 018°05'0 0.0
2016-Jun-28 21:33N 59°20' E 018°05'0 0.0
2016-Jun-28 20:33N 59°20' E 018°05'0 0.1
2016-Jun-28 15:34N 59°20' E 018°05'0 0.4
2016-Jun-28 14:31N 59°20' E 018°05'1 0.2
2016-Jun-28 08:09N 59°19' E 018°06'1 1.7
2016-Jun-28 07:29N 59°20' E 018°05'0 0.0
2016-Jun-27 20:33N 59°20' E 018°05'0 0.1
2016-Jun-27 15:33N 59°20' E 018°05'0 0.5
2016-Jun-27 14:31N 59°20' E 018°05'1 0.2
2016-Jun-27 08:09N 59°19' E 018°07'1 1.2
2016-Jun-27 07:04N 59°20' E 018°05'0 0.0
2016-Jun-27 06:08N 59°20' E 018°05'0 0.0
2016-Jun-27 05:33N 59°20' E 018°05'0 0.0
2016-Jun-27 04:31N 59°20' E 018°05'0 0.0
2016-Jun-27 03:33N 59°20' E 018°05'0 0.0
2016-Jun-27 02:34N 59°20' E 018°05'0 0.0
2016-Jun-27 01:33N 59°20' E 018°05'0 0.0
2016-Jun-27 00:33N 59°20' E 018°05'0 0.0
2016-Jun-26 23:33N 59°20' E 018°05'0 0.0
2016-Jun-26 22:33N 59°20' E 018°05'0 0.0
2016-Jun-26 21:33N 59°20' E 018°05'0 0.0
2016-Jun-26 20:33N 59°20' E 018°05'3 2.6
2016-Jun-26 19:26N 59°19' E 018°10'3 0.6
2016-Jun-26 14:33N 59°20' E 018°05'1 0.2
2016-Jun-26 08:06N 59°19' E 018°06'1 1.8
2016-Jun-26 07:34N 59°20' E 018°05'0 0.0
2016-Jun-26 06:33N 59°20' E 018°05'0 0.0
2016-Jun-26 05:34N 59°20' E 018°05'0 0.0
2016-Jun-26 04:33N 59°20' E 018°05'0 0.0
2016-Jun-26 03:33N 59°20' E 018°05'0 0.0
2016-Jun-26 02:33N 59°20' E 018°05'0 0.0
2016-Jun-26 01:34N 59°20' E 018°05'0 0.0
2016-Jun-26 00:34N 59°20' E 018°05'0 0.0
2016-Jun-25 23:34N 59°20' E 018°05'0 0.0
2016-Jun-25 22:33N 59°20' E 018°05'0 0.0
2016-Jun-25 21:34N 59°20' E 018°05'0 0.0
2016-Jun-25 20:33N 59°20' E 018°05'3 2.7
2016-Jun-25 19:29N 59°19' E 018°10'1 0.1
2016-Jun-25 15:06N 59°20' E 018°11'3 6.0
2016-Jun-25 14:33N 59°20' E 018°05'3 0.5
2016-Jun-25 08:23N 59°20' E 018°11'3 4.1
2016-Jun-25 07:34N 59°20' E 018°05'0 0.0
2016-Jun-25 06:33N 59°20' E 018°05'0 0.0
2016-Jun-25 05:34N 59°20' E 018°05'0 0.0
2016-Jun-25 04:34N 59°20' E 018°05'0 0.0
2016-Jun-25 03:33N 59°20' E 018°05'0 0.0
2016-Jun-25 02:33N 59°20' E 018°05'0 0.0
2016-Jun-25 01:33N 59°20' E 018°05'0 0.0
2016-Jun-25 00:33N 59°20' E 018°05'0 0.0
2016-Jun-24 23:33N 59°20' E 018°05'0 0.0
2016-Jun-24 22:33N 59°20' E 018°05'0 0.0
2016-Jun-24 21:33N 59°20' E 018°05'0 0.0
2016-Jun-24 20:34N 59°20' E 018°05'3 3.2
2016-Jun-24 19:33N 59°20' E 018°11'0 0.0
2016-Jun-24 15:06N 59°20' E 018°11'3 6.1
2016-Jun-24 14:33N 59°20' E 018°05'1 0.2
2016-Jun-24 08:07N 59°19' E 018°06'1 1.7
2016-Jun-24 07:33N 59°20' E 018°05'0 0.0
2016-Jun-24 04:33N 59°20' E 018°05'0 0.0
2016-Jun-24 03:33N 59°20' E 018°05'0 0.0
2016-Jun-24 02:33N 59°20' E 018°05'0 0.0
2016-Jun-24 01:33N 59°20' E 018°05'0 0.0
2016-Jun-24 00:33N 59°20' E 018°05'0 0.0
2016-Jun-23 23:34N 59°20' E 018°05'0 0.0
2016-Jun-23 22:33N 59°20' E 018°05'0 0.0
2016-Jun-23 21:33N 59°20' E 018°05'3 3.0
2016-Jun-23 20:27N 59°20' E 018°11'3 0.6
2016-Jun-23 15:34N 59°20' E 018°05'0 0.4
2016-Jun-23 14:26N 59°20' E 018°05'3 0.6
2016-Jun-23 08:22N 59°20' E 018°11'3 3.6
2016-Jun-23 07:24N 59°20' E 018°05'0 0.0
2016-Jun-23 05:31N 59°20' E 018°05'0 0.0
2016-Jun-23 04:33N 59°20' E 018°05'0 0.0
2016-Jun-23 03:33N 59°20' E 018°05'0 0.0
2016-Jun-23 02:33N 59°20' E 018°05'0 0.0
2016-Jun-23 01:33N 59°20' E 018°05'0 0.0
2016-Jun-23 00:33N 59°20' E 018°05'0 0.0
2016-Jun-22 23:33N 59°20' E 018°05'0 0.0
2016-Jun-22 21:31N 59°20' E 018°05'3 2.6
2016-Jun-22 20:25N 59°19' E 018°10'3 0.6
2016-Jun-22 15:33N 59°20' E 018°05'0 0.0
2016-Jun-22 14:20N 59°20' E 018°05'3 0.5
2016-Jun-22 08:22N 59°20' E 018°11'3 2.9
2016-Jun-22 07:16N 59°20' E 018°05'0 0.0
2016-Jun-22 06:33N 59°20' E 018°05'0 0.0
2016-Jun-22 05:33N 59°20' E 018°05'0 0.0
2016-Jun-22 04:33N 59°20' E 018°05'0 0.0
2016-Jun-22 03:33N 59°20' E 018°05'0 0.0
2016-Jun-22 02:33N 59°20' E 018°05'0 0.0
2016-Jun-22 01:33N 59°20' E 018°05'0 0.0
2016-Jun-22 00:33N 59°20' E 018°05'0 0.0
2016-Jun-21 23:33N 59°20' E 018°05'0 0.0
2016-Jun-21 22:33N 59°20' E 018°05'0 0.0
2016-Jun-21 21:33N 59°20' E 018°05'0 0.3
2016-Jun-21 20:33N 59°20' E 018°05'0 0.0
2016-Jun-21 15:33N 59°20' E 018°05'0 0.4
2016-Jun-21 14:30N 59°20' E 018°05'  

Dump ship's entire track history